sensor_id;sensor_type;location;lat;lon;timestamp;pressure;altitude;pressure_sealevel;temperature;humidity
63347;BME280;49472;49.880;8.650;2022-10-17T00:00:29;100420.94;;;41.30;24.82
63347;BME280;49472;49.880;8.650;2022-10-17T00:02:58;100426.31;;;41.39;24.70
63347;BME280;49472;49.880;8.650;2022-10-17T00:05:23;100419.81;;;41.31;24.64
63347;BME280;49472;49.880;8.650;2022-10-17T00:07:50;100430.69;;;41.26;24.68
63347;BME280;49472;49.880;8.650;2022-10-17T00:10:15;100424.75;;;41.38;24.53
63347;BME280;49472;49.880;8.650;2022-10-17T00:12:41;100430.03;;;40.98;24.77
63347;BME280;49472;49.880;8.650;2022-10-17T00:15:07;100436.84;;;41.04;24.97
63347;BME280;49472;49.880;8.650;2022-10-17T00:17:33;100435.00;;;40.82;24.72
63347;BME280;49472;49.880;8.650;2022-10-17T00:20:00;100440.34;;;41.27;24.58
63347;BME280;49472;49.880;8.650;2022-10-17T00:22:26;100436.56;;;41.37;24.37
63347;BME280;49472;49.880;8.650;2022-10-17T00:24:52;100439.13;;;41.11;24.58
63347;BME280;49472;49.880;8.650;2022-10-17T00:27:17;100434.88;;;41.10;24.69
63347;BME280;49472;49.880;8.650;2022-10-17T00:29:47;100442.00;;;41.46;24.42
63347;BME280;49472;49.880;8.650;2022-10-17T00:32:12;100438.38;;;41.19;24.46
63347;BME280;49472;49.880;8.650;2022-10-17T00:34:38;100438.09;;;41.20;24.45
63347;BME280;49472;49.880;8.650;2022-10-17T00:37:03;100434.63;;;41.20;24.60
63347;BME280;49472;49.880;8.650;2022-10-17T00:39:29;100437.66;;;41.27;24.14
63347;BME280;49472;49.880;8.650;2022-10-17T00:41:54;100442.94;;;41.10;24.44
63347;BME280;49472;49.880;8.650;2022-10-17T00:46:57;100438.09;;;40.98;24.58
63347;BME280;49472;49.880;8.650;2022-10-17T00:49:25;100446.75;;;40.72;24.93
63347;BME280;49472;49.880;8.650;2022-10-17T00:51:54;100443.56;;;40.93;24.70
63347;BME280;49472;49.880;8.650;2022-10-17T00:54:23;100449.47;;;40.81;24.53
63347;BME280;49472;49.880;8.650;2022-10-17T00:56:49;100445.97;;;40.94;24.82
63347;BME280;49472;49.880;8.650;2022-10-17T00:59:17;100446.09;;;40.67;24.76
63347;BME280;49472;49.880;8.650;2022-10-17T01:01:49;100450.59;;;40.80;24.93
63347;BME280;49472;49.880;8.650;2022-10-17T01:04:17;100452.97;;;40.45;24.91
63347;BME280;49472;49.880;8.650;2022-10-17T01:06:43;100451.56;;;39.98;25.54
63347;BME280;49472;49.880;8.650;2022-10-17T01:09:08;100460.69;;;40.10;25.69
63347;BME280;49472;49.880;8.650;2022-10-17T01:17:17;100452.28;;;40.53;25.08
63347;BME280;49472;49.880;8.650;2022-10-17T01:22:26;100453.84;;;40.54;24.70
63347;BME280;49472;49.880;8.650;2022-10-17T01:31:11;100446.91;;;40.53;25.11
63347;BME280;49472;49.880;8.650;2022-10-17T01:41:55;100442.78;;;40.20;24.85
63347;BME280;49472;49.880;8.650;2022-10-17T01:47:00;100447.16;;;40.29;24.94
63347;BME280;49472;49.880;8.650;2022-10-17T01:49:30;100436.78;;;40.50;24.66
63347;BME280;49472;49.880;8.650;2022-10-17T01:52:09;100432.81;;;40.25;24.66
63347;BME280;49472;49.880;8.650;2022-10-17T01:54:40;100441.00;;;40.15;24.77
63347;BME280;49472;49.880;8.650;2022-10-17T01:57:10;100440.63;;;39.94;25.30
63347;BME280;49472;49.880;8.650;2022-10-17T01:59:40;100432.94;;;39.92;25.64
63347;BME280;49472;49.880;8.650;2022-10-17T02:02:08;100436.09;;;39.81;25.47
63347;BME280;49472;49.880;8.650;2022-10-17T02:04:34;100432.91;;;39.79;25.33
63347;BME280;49472;49.880;8.650;2022-10-17T02:07:11;100436.06;;;39.94;25.11
63347;BME280;49472;49.880;8.650;2022-10-17T02:09:37;100442.22;;;39.67;25.53
63347;BME280;49472;49.880;8.650;2022-10-17T02:18:04;100428.94;;;40.04;24.77
63347;BME280;49472;49.880;8.650;2022-10-17T02:20:48;100432.94;;;39.92;24.74
63347;BME280;49472;49.880;8.650;2022-10-17T02:29:07;100428.41;;;39.74;25.35
63347;BME280;49472;49.880;8.650;2022-10-17T02:31:39;100431.00;;;39.65;25.43
63347;BME280;49472;49.880;8.650;2022-10-17T02:34:12;100429.44;;;39.64;25.38
63347;BME280;49472;49.880;8.650;2022-10-17T02:36:46;100429.03;;;39.57;25.20
63347;BME280;49472;49.880;8.650;2022-10-17T02:39:12;100430.13;;;39.84;25.34
63347;BME280;49472;49.880;8.650;2022-10-17T02:41:39;100432.50;;;39.71;25.14
63347;BME280;49472;49.880;8.650;2022-10-17T02:44:05;100424.94;;;40.29;24.71
63347;BME280;49472;49.880;8.650;2022-10-17T02:46:31;100430.50;;;40.19;24.91
63347;BME280;49472;49.880;8.650;2022-10-17T02:49:00;100439.66;;;39.90;24.73
63347;BME280;49472;49.880;8.650;2022-10-17T02:51:38;100444.38;;;40.21;25.11
63347;BME280;49472;49.880;8.650;2022-10-17T02:57:04;100442.09;;;40.14;24.72
63347;BME280;49472;49.880;8.650;2022-10-17T02:59:33;100449.66;;;40.12;24.50
63347;BME280;49472;49.880;8.650;2022-10-17T03:02:03;100459.97;;;40.05;24.71
63347;BME280;49472;49.880;8.650;2022-10-17T03:04:29;100455.81;;;39.57;25.31
63347;BME280;49472;49.880;8.650;2022-10-17T03:06:54;100461.38;;;39.75;25.03
63347;BME280;49472;49.880;8.650;2022-10-17T03:09:19;100453.81;;;39.77;24.92
63347;BME280;49472;49.880;8.650;2022-10-17T03:11:45;100458.88;;;39.92;25.07
63347;BME280;49472;49.880;8.650;2022-10-17T03:14:10;100464.47;;;39.35;25.16
63347;BME280;49472;49.880;8.650;2022-10-17T03:16:35;100457.38;;;39.25;25.48
63347;BME280;49472;49.880;8.650;2022-10-17T03:19:01;100454.97;;;39.43;25.78
63347;BME280;49472;49.880;8.650;2022-10-17T03:21:26;100458.91;;;39.32;25.33
63347;BME280;49472;49.880;8.650;2022-10-17T03:23:51;100457.97;;;39.41;25.59
63347;BME280;49472;49.880;8.650;2022-10-17T03:26:17;100458.06;;;39.50;25.58
63347;BME280;49472;49.880;8.650;2022-10-17T03:28:42;100471.94;;;39.52;24.95
63347;BME280;49472;49.880;8.650;2022-10-17T03:31:09;100464.53;;;39.49;25.35
63347;BME280;49472;49.880;8.650;2022-10-17T03:33:36;100474.25;;;39.72;25.09
63347;BME280;49472;49.880;8.650;2022-10-17T03:36:10;100473.66;;;39.62;25.09
63347;BME280;49472;49.880;8.650;2022-10-17T03:38:36;100479.47;;;39.36;25.26
63347;BME280;49472;49.880;8.650;2022-10-17T03:41:02;100485.75;;;39.59;25.45
63347;BME280;49472;49.880;8.650;2022-10-17T03:43:29;100481.88;;;39.65;24.96
63347;BME280;49472;49.880;8.650;2022-10-17T03:45:56;100486.19;;;39.34;25.17
63347;BME280;49472;49.880;8.650;2022-10-17T03:48:22;100488.78;;;39.39;25.47
63347;BME280;49472;49.880;8.650;2022-10-17T03:50:48;100493.94;;;38.97;25.72
63347;BME280;49472;49.880;8.650;2022-10-17T03:53:13;100485.16;;;39.29;24.98
63347;BME280;49472;49.880;8.650;2022-10-17T03:55:39;100495.88;;;39.11;25.16
63347;BME280;49472;49.880;8.650;2022-10-17T03:58:04;100491.47;;;39.20;25.31
63347;BME280;49472;49.880;8.650;2022-10-17T04:00:29;100493.03;;;39.40;25.23
63347;BME280;49472;49.880;8.650;2022-10-17T04:02:56;100494.97;;;39.67;25.04
63347;BME280;49472;49.880;8.650;2022-10-17T04:05:22;100501.06;;;39.54;24.74
63347;BME280;49472;49.880;8.650;2022-10-17T04:07:47;100506.13;;;39.22;25.04
63347;BME280;49472;49.880;8.650;2022-10-17T04:10:12;100514.09;;;39.60;25.23
63347;BME280;49472;49.880;8.650;2022-10-17T04:12:38;100505.78;;;39.89;24.65
63347;BME280;49472;49.880;8.650;2022-10-17T04:15:03;100519.09;;;39.81;25.16
63347;BME280;49472;49.880;8.650;2022-10-17T04:17:30;100511.22;;;39.70;24.80
63347;BME280;49472;49.880;8.650;2022-10-17T04:19:55;100520.91;;;39.53;25.23
63347;BME280;49472;49.880;8.650;2022-10-17T04:22:20;100510.41;;;39.56;25.16
63347;BME280;49472;49.880;8.650;2022-10-17T04:24:46;100519.63;;;39.50;25.00
63347;BME280;49472;49.880;8.650;2022-10-17T04:27:11;100520.72;;;39.49;25.15
63347;BME280;49472;49.880;8.650;2022-10-17T04:29:36;100522.13;;;39.60;25.14
63347;BME280;49472;49.880;8.650;2022-10-17T04:32:02;100522.78;;;39.19;25.33
63347;BME280;49472;49.880;8.650;2022-10-17T04:34:27;100523.41;;;39.49;25.09
63347;BME280;49472;49.880;8.650;2022-10-17T04:36:52;100512.28;;;39.23;25.38
63347;BME280;49472;49.880;8.650;2022-10-17T04:39:18;100522.31;;;39.64;25.03
63347;BME280;49472;49.880;8.650;2022-10-17T04:41:43;100530.56;;;39.35;25.33
63347;BME280;49472;49.880;8.650;2022-10-17T04:44:09;100518.84;;;39.30;25.22
63347;BME280;49472;49.880;8.650;2022-10-17T04:46:35;100521.50;;;39.30;25.25
63347;BME280;49472;49.880;8.650;2022-10-17T04:49:00;100522.19;;;39.22;25.25
63347;BME280;49472;49.880;8.650;2022-10-17T04:51:26;100521.22;;;38.99;25.81
63347;BME280;49472;49.880;8.650;2022-10-17T04:53:51;100524.88;;;38.84;25.80
63347;BME280;49472;49.880;8.650;2022-10-17T04:56:21;100516.91;;;39.17;25.36
63347;BME280;49472;49.880;8.650;2022-10-17T04:58:47;100518.56;;;39.13;25.56
63347;BME280;49472;49.880;8.650;2022-10-17T05:01:19;100509.31;;;39.24;25.18
63347;BME280;49472;49.880;8.650;2022-10-17T05:03:45;100514.16;;;39.22;25.32
63347;BME280;49472;49.880;8.650;2022-10-17T05:06:14;100520.38;;;39.37;25.17
63347;BME280;49472;49.880;8.650;2022-10-17T05:08:39;100524.94;;;39.17;25.22
63347;BME280;49472;49.880;8.650;2022-10-17T05:11:15;100525.97;;;39.21;25.07
63347;BME280;49472;49.880;8.650;2022-10-17T05:13:40;100524.78;;;39.27;25.06
63347;BME280;49472;49.880;8.650;2022-10-17T05:16:06;100523.75;;;39.23;24.92
63347;BME280;49472;49.880;8.650;2022-10-17T05:18:31;100514.25;;;39.17;25.38
63347;BME280;49472;49.880;8.650;2022-10-17T05:20:56;100516.75;;;39.27;24.76
63347;BME280;49472;49.880;8.650;2022-10-17T05:23:22;100518.22;;;39.20;25.14
63347;BME280;49472;49.880;8.650;2022-10-17T05:25:53;100517.44;;;39.33;25.33
63347;BME280;49472;49.880;8.650;2022-10-17T05:28:18;100513.25;;;41.52;23.20
63347;BME280;49472;49.880;8.650;2022-10-17T05:30:43;100514.72;;;39.38;25.03
63347;BME280;49472;49.880;8.650;2022-10-17T05:33:09;100514.44;;;39.21;25.15
63347;BME280;49472;49.880;8.650;2022-10-17T05:35:34;100516.63;;;39.19;25.35
63347;BME280;49472;49.880;8.650;2022-10-17T05:38:00;100518.38;;;39.10;25.65
63347;BME280;49472;49.880;8.650;2022-10-17T05:40:25;100521.09;;;39.23;25.24
63347;BME280;49472;49.880;8.650;2022-10-17T05:42:51;100528.47;;;39.13;25.42
63347;BME280;49472;49.880;8.650;2022-10-17T05:45:16;100527.19;;;39.10;25.61
63347;BME280;49472;49.880;8.650;2022-10-17T05:47:42;100546.69;;;39.11;25.08
63347;BME280;49472;49.880;8.650;2022-10-17T05:50:10;100540.47;;;38.58;25.78
63347;BME280;49472;49.880;8.650;2022-10-17T05:52:35;100542.94;;;39.12;25.35
63347;BME280;49472;49.880;8.650;2022-10-17T05:55:02;100535.78;;;39.07;25.77
63347;BME280;49472;49.880;8.650;2022-10-17T05:57:27;100543.09;;;39.01;25.74
63347;BME280;49472;49.880;8.650;2022-10-17T05:59:53;100545.84;;;38.96;25.64
63347;BME280;49472;49.880;8.650;2022-10-17T06:02:18;100561.72;;;38.69;25.82
63347;BME280;49472;49.880;8.650;2022-10-17T06:04:44;100559.19;;;39.15;25.50
63347;BME280;49472;49.880;8.650;2022-10-17T06:07:14;100558.53;;;39.23;25.12
63347;BME280;49472;49.880;8.650;2022-10-17T06:09:39;100549.84;;;38.99;25.74
63347;BME280;49472;49.880;8.650;2022-10-17T06:12:05;100562.03;;;39.05;25.09
63347;BME280;49472;49.880;8.650;2022-10-17T06:14:31;100559.44;;;39.00;25.62
63347;BME280;49472;49.880;8.650;2022-10-17T06:16:56;100562.75;;;38.92;25.83
63347;BME280;49472;49.880;8.650;2022-10-17T06:19:21;100560.59;;;38.94;25.96
63347;BME280;49472;49.880;8.650;2022-10-17T06:21:47;100564.63;;;39.10;25.78
63347;BME280;49472;49.880;8.650;2022-10-17T06:24:13;100562.75;;;39.29;25.58
63347;BME280;49472;49.880;8.650;2022-10-17T06:26:38;100567.97;;;39.02;25.38
63347;BME280;49472;49.880;8.650;2022-10-17T06:29:03;100572.41;;;39.25;25.04
63347;BME280;49472;49.880;8.650;2022-10-17T06:31:29;100582.50;;;39.34;25.21
63347;BME280;49472;49.880;8.650;2022-10-17T06:33:54;100583.81;;;39.36;25.07
63347;BME280;49472;49.880;8.650;2022-10-17T06:36:20;100585.72;;;39.30;25.03
63347;BME280;49472;49.880;8.650;2022-10-17T06:38:45;100582.63;;;39.23;25.71
63347;BME280;49472;49.880;8.650;2022-10-17T06:41:14;100578.91;;;39.57;25.51
63347;BME280;49472;49.880;8.650;2022-10-17T06:43:41;100589.06;;;39.03;25.97
63347;BME280;49472;49.880;8.650;2022-10-17T06:46:09;100590.16;;;39.21;25.70
63347;BME280;49472;49.880;8.650;2022-10-17T06:48:35;100593.63;;;39.41;25.60
63347;BME280;49472;49.880;8.650;2022-10-17T06:51:01;100601.00;;;39.49;25.37
63347;BME280;49472;49.880;8.650;2022-10-17T06:53:28;100585.72;;;39.49;25.12
63347;BME280;49472;49.880;8.650;2022-10-17T06:55:54;100604.31;;;39.41;25.32
63347;BME280;49472;49.880;8.650;2022-10-17T06:58:22;100595.50;;;39.02;26.03
63347;BME280;49472;49.880;8.650;2022-10-17T07:00:48;100596.88;;;39.00;26.31
63347;BME280;49472;49.880;8.650;2022-10-17T07:03:14;100606.66;;;39.80;25.28
63347;BME280;49472;49.880;8.650;2022-10-17T07:05:39;100613.13;;;39.93;25.36
63347;BME280;49472;49.880;8.650;2022-10-17T07:08:05;100615.81;;;39.03;26.32
63347;BME280;49472;49.880;8.650;2022-10-17T07:10:31;100612.31;;;39.79;25.93
63347;BME280;49472;49.880;8.650;2022-10-17T07:13:02;100615.19;;;39.82;25.56
63347;BME280;49472;49.880;8.650;2022-10-17T07:15:28;100622.75;;;39.94;25.24
63347;BME280;49472;49.880;8.650;2022-10-17T07:17:53;100611.28;;;40.35;25.27
63347;BME280;49472;49.880;8.650;2022-10-17T07:20:39;100614.50;;;40.51;25.09
63347;BME280;49472;49.880;8.650;2022-10-17T07:23:11;100611.94;;;39.66;26.01
63347;BME280;49472;49.880;8.650;2022-10-17T07:25:36;100621.34;;;39.64;26.04
63347;BME280;49472;49.880;8.650;2022-10-17T07:28:01;100618.63;;;38.93;26.75
63347;BME280;49472;49.880;8.650;2022-10-17T07:30:28;100622.53;;;39.58;26.31
63347;BME280;49472;49.880;8.650;2022-10-17T07:32:53;100619.28;;;39.93;25.73
63347;BME280;49472;49.880;8.650;2022-10-17T07:35:18;100619.47;;;39.97;25.88
63347;BME280;49472;49.880;8.650;2022-10-17T07:37:44;100621.59;;;40.00;25.92
63347;BME280;49472;49.880;8.650;2022-10-17T07:40:10;100622.53;;;40.23;25.64
63347;BME280;49472;49.880;8.650;2022-10-17T07:42:36;100624.78;;;40.16;25.88
63347;BME280;49472;49.880;8.650;2022-10-17T07:45:02;100638.28;;;40.25;25.75
63347;BME280;49472;49.880;8.650;2022-10-17T07:47:28;100621.44;;;40.52;25.53
63347;BME280;49472;49.880;8.650;2022-10-17T07:49:55;100624.50;;;40.73;25.60
63347;BME280;49472;49.880;8.650;2022-10-17T07:52:21;100618.41;;;41.31;24.92
63347;BME280;49472;49.880;8.650;2022-10-17T07:54:46;100624.75;;;41.13;25.23
63347;BME280;49472;49.880;8.650;2022-10-17T07:57:11;100640.44;;;40.09;26.00
63347;BME280;49472;49.880;8.650;2022-10-17T07:59:37;100651.22;;;40.23;25.88
63347;BME280;49472;49.880;8.650;2022-10-17T08:02:02;100658.47;;;39.70;26.40
63347;BME280;49472;49.880;8.650;2022-10-17T08:04:32;100654.41;;;40.80;25.40
63347;BME280;49472;49.880;8.650;2022-10-17T08:07:00;100661.19;;;39.52;26.86
63347;BME280;49472;49.880;8.650;2022-10-17T08:09:25;100645.94;;;39.85;26.69
63347;BME280;49472;49.880;8.650;2022-10-17T08:11:51;100647.44;;;40.51;26.02
63347;BME280;49472;49.880;8.650;2022-10-17T08:14:16;100661.13;;;38.95;27.31
63347;BME280;49472;49.880;8.650;2022-10-17T08:16:42;100656.50;;;40.09;26.65
63347;BME280;49472;49.880;8.650;2022-10-17T08:19:07;100659.78;;;40.66;25.66
63347;BME280;49472;49.880;8.650;2022-10-17T08:21:33;100658.22;;;40.19;26.77
63347;BME280;49472;49.880;8.650;2022-10-17T08:23:59;100662.63;;;40.84;25.72
63347;BME280;49472;49.880;8.650;2022-10-17T08:26:27;100664.50;;;40.83;25.89
63347;BME280;49472;49.880;8.650;2022-10-17T08:28:52;100651.59;;;40.85;25.82
63347;BME280;49472;49.880;8.650;2022-10-17T08:31:18;100649.75;;;40.11;26.23
63347;BME280;49472;49.880;8.650;2022-10-17T08:33:44;100639.44;;;41.01;25.48
63347;BME280;49472;49.880;8.650;2022-10-17T08:36:13;100648.66;;;40.12;26.22
63347;BME280;49472;49.880;8.650;2022-10-17T08:38:38;100650.72;;;39.12;27.13
63347;BME280;49472;49.880;8.650;2022-10-17T08:41:13;100643.72;;;39.16;27.47
63347;BME280;49472;49.880;8.650;2022-10-17T08:46:37;100653.31;;;40.53;26.17
63347;BME280;49472;49.880;8.650;2022-10-17T08:49:10;100652.81;;;40.79;25.59
63347;BME280;49472;49.880;8.650;2022-10-17T08:51:43;100649.81;;;40.94;25.69
63347;BME280;49472;49.880;8.650;2022-10-17T08:54:16;100645.59;;;41.52;25.31
63347;BME280;49472;49.880;8.650;2022-10-17T08:56:48;100636.94;;;41.55;25.34
63347;BME280;49472;49.880;8.650;2022-10-17T08:59:20;100643.28;;;40.87;25.76
63347;BME280;49472;49.880;8.650;2022-10-17T09:01:53;100641.63;;;40.17;26.61
63347;BME280;49472;49.880;8.650;2022-10-17T09:07:04;100643.88;;;40.70;25.82
63347;BME280;49472;49.880;8.650;2022-10-17T09:14:56;100646.63;;;40.92;25.55
63347;BME280;49472;49.880;8.650;2022-10-17T09:17:57;100654.38;;;40.52;26.09
63347;BME280;49472;49.880;8.650;2022-10-17T09:20:20;100668.97;;;40.32;26.38
63347;BME280;49472;49.880;8.650;2022-10-17T09:22:55;100671.56;;;39.53;27.09
63347;BME280;49472;49.880;8.650;2022-10-17T09:25:21;100660.78;;;39.20;27.45
63347;BME280;49472;49.880;8.650;2022-10-17T09:27:53;100665.91;;;39.92;26.77
63347;BME280;49472;49.880;8.650;2022-10-17T09:32:55;100677.84;;;40.14;26.75
63347;BME280;49472;49.880;8.650;2022-10-17T09:35:21;100684.09;;;40.70;25.83
63347;BME280;49472;49.880;8.650;2022-10-17T09:37:48;100684.19;;;39.34;27.08
63347;BME280;49472;49.880;8.650;2022-10-17T09:40:30;100684.94;;;39.72;27.03
63347;BME280;49472;49.880;8.650;2022-10-17T09:42:57;100683.88;;;39.54;26.99
63347;BME280;49472;49.880;8.650;2022-10-17T09:45:24;100671.41;;;39.63;27.23
63347;BME280;49472;49.880;8.650;2022-10-17T09:48:03;100673.09;;;40.71;26.28
63347;BME280;49472;49.880;8.650;2022-10-17T09:50:33;100677.91;;;40.28;26.18
63347;BME280;49472;49.880;8.650;2022-10-17T09:55:47;100669.25;;;41.14;25.69
63347;BME280;49472;49.880;8.650;2022-10-17T09:58:13;100660.22;;;42.22;24.77
63347;BME280;49472;49.880;8.650;2022-10-17T10:00:41;100667.69;;;41.72;24.73
63347;BME280;49472;49.880;8.650;2022-10-17T10:05:39;100668.91;;;41.66;25.09
63347;BME280;49472;49.880;8.650;2022-10-17T10:08:16;100680.97;;;41.04;25.58
63347;BME280;49472;49.880;8.650;2022-10-17T10:10:44;100689.50;;;41.06;25.18
63347;BME280;49472;49.880;8.650;2022-10-17T10:15:40;100687.00;;;41.60;25.11
63347;BME280;49472;49.880;8.650;2022-10-17T10:23:33;100702.13;;;40.36;25.99
63347;BME280;49472;49.880;8.650;2022-10-17T10:26:02;100696.31;;;40.90;25.60
63347;BME280;49472;49.880;8.650;2022-10-17T10:28:32;100693.72;;;42.87;24.24
63347;BME280;49472;49.880;8.650;2022-10-17T10:31:05;100694.25;;;41.96;24.57
63347;BME280;49472;49.880;8.650;2022-10-17T10:33:34;100700.50;;;42.45;24.32
63347;BME280;49472;49.880;8.650;2022-10-17T10:36:03;100695.97;;;41.78;24.98
63347;BME280;49472;49.880;8.650;2022-10-17T10:38:30;100696.47;;;41.21;25.41
63347;BME280;49472;49.880;8.650;2022-10-17T10:41:02;100695.22;;;41.41;25.11
63347;BME280;49472;49.880;8.650;2022-10-17T10:45:59;100677.25;;;43.06;23.30
63347;BME280;49472;49.880;8.650;2022-10-17T10:48:27;100683.03;;;41.80;24.58
63347;BME280;49472;49.880;8.650;2022-10-17T10:51:00;100687.91;;;42.23;24.58
63347;BME280;49472;49.880;8.650;2022-10-17T10:56:01;100680.53;;;41.38;25.12
63347;BME280;49472;49.880;8.650;2022-10-17T11:09:53;100695.94;;;42.54;24.40
63347;BME280;49472;49.880;8.650;2022-10-17T11:12:33;100689.44;;;43.04;23.77
63347;BME280;49472;49.880;8.650;2022-10-17T11:15:08;100702.41;;;43.89;23.48
63347;BME280;49472;49.880;8.650;2022-10-17T11:18:00;100695.97;;;43.46;23.17
63347;BME280;49472;49.880;8.650;2022-10-17T11:23:22;100695.28;;;44.02;22.98
63347;BME280;49472;49.880;8.650;2022-10-17T11:25:51;100712.16;;;44.28;22.30
63347;BME280;49472;49.880;8.650;2022-10-17T11:28:19;100709.34;;;44.63;22.08
63347;BME280;49472;49.880;8.650;2022-10-17T11:30:58;100697.84;;;44.36;22.49
63347;BME280;49472;49.880;8.650;2022-10-17T11:36:01;100703.19;;;46.13;21.68
63347;BME280;49472;49.880;8.650;2022-10-17T11:38:57;100703.59;;;47.70;20.15
63347;BME280;49472;49.880;8.650;2022-10-17T11:41:30;100699.09;;;47.17;20.22
63347;BME280;49472;49.880;8.650;2022-10-17T11:44:04;100696.78;;;46.18;21.36
63347;BME280;49472;49.880;8.650;2022-10-17T11:46:33;100700.13;;;45.36;22.09
63347;BME280;49472;49.880;8.650;2022-10-17T11:49:10;100702.91;;;45.81;21.34
63347;BME280;49472;49.880;8.650;2022-10-17T11:51:51;100698.06;;;47.10;20.73
63347;BME280;49472;49.880;8.650;2022-10-17T11:54:27;100706.25;;;48.14;19.38
63347;BME280;49472;49.880;8.650;2022-10-17T11:59:46;100716.53;;;45.10;21.63
63347;BME280;49472;49.880;8.650;2022-10-17T12:02:29;100703.78;;;46.80;20.63
63347;BME280;49472;49.880;8.650;2022-10-17T12:05:08;100709.72;;;47.10;20.24
63347;BME280;49472;49.880;8.650;2022-10-17T12:08:02;100693.56;;;47.02;20.50
63347;BME280;49472;49.880;8.650;2022-10-17T12:18:49;100707.88;;;49.01;19.37
63347;BME280;49472;49.880;8.650;2022-10-17T12:21:16;100705.88;;;48.63;18.93
63347;BME280;49472;49.880;8.650;2022-10-17T12:23:50;100704.44;;;49.24;18.63
63347;BME280;49472;49.880;8.650;2022-10-17T12:26:25;100702.06;;;49.03;18.74
63347;BME280;49472;49.880;8.650;2022-10-17T12:28:51;100697.59;;;48.75;19.04
63347;BME280;49472;49.880;8.650;2022-10-17T12:33:54;100682.97;;;51.58;16.90
63347;BME280;49472;49.880;8.650;2022-10-17T12:54:52;100696.75;;;53.05;16.27
63347;BME280;49472;49.880;8.650;2022-10-17T12:57:32;100696.09;;;51.12;17.34
63347;BME280;49472;49.880;8.650;2022-10-17T13:00:13;100717.16;;;49.00;18.57
63347;BME280;49472;49.880;8.650;2022-10-17T13:02:40;100716.06;;;50.59;17.82
63347;BME280;49472;49.880;8.650;2022-10-17T13:05:12;100707.03;;;52.49;16.62
63347;BME280;49472;49.880;8.650;2022-10-17T13:07:40;100709.44;;;50.60;17.37
63347;BME280;49472;49.880;8.650;2022-10-17T13:10:17;100710.84;;;53.28;16.71
63347;BME280;49472;49.880;8.650;2022-10-17T13:12:43;100705.03;;;53.41;15.61
63347;BME280;49472;49.880;8.650;2022-10-17T13:15:15;100706.19;;;53.32;15.68
63347;BME280;49472;49.880;8.650;2022-10-17T13:17:43;100702.63;;;53.07;16.26
63347;BME280;49472;49.880;8.650;2022-10-17T13:20:23;100710.59;;;51.53;16.40
63347;BME280;49472;49.880;8.650;2022-10-17T13:22:50;100706.69;;;51.99;16.88
63347;BME280;49472;49.880;8.650;2022-10-17T13:25:18;100703.41;;;53.07;16.46
63347;BME280;49472;49.880;8.650;2022-10-17T13:27:44;100711.59;;;52.30;16.31
63347;BME280;49472;49.880;8.650;2022-10-17T13:30:29;100722.72;;;52.66;16.30
63347;BME280;49472;49.880;8.650;2022-10-17T13:32:55;100721.16;;;52.69;16.84
63347;BME280;49472;49.880;8.650;2022-10-17T13:35:34;100723.78;;;50.04;17.96
63347;BME280;49472;49.880;8.650;2022-10-17T13:38:03;100711.25;;;50.49;17.58
63347;BME280;49472;49.880;8.650;2022-10-17T13:40:39;100726.88;;;51.12;17.24
63347;BME280;49472;49.880;8.650;2022-10-17T13:43:12;100719.66;;;52.13;17.06
63347;BME280;49472;49.880;8.650;2022-10-17T13:45:45;100723.00;;;51.92;16.61
63347;BME280;49472;49.880;8.650;2022-10-17T13:48:27;100725.16;;;52.79;16.18
63347;BME280;49472;49.880;8.650;2022-10-17T13:50:56;100727.78;;;51.27;17.22
63347;BME280;49472;49.880;8.650;2022-10-17T13:53:33;100732.31;;;51.83;17.33
63347;BME280;49472;49.880;8.650;2022-10-17T13:58:52;100730.91;;;52.04;16.71
63347;BME280;49472;49.880;8.650;2022-10-17T14:01:20;100722.59;;;54.43;16.26
63347;BME280;49472;49.880;8.650;2022-10-17T14:03:47;100728.88;;;55.84;14.99
63347;BME280;49472;49.880;8.650;2022-10-17T14:06:42;100731.66;;;53.76;16.02
63347;BME280;49472;49.880;8.650;2022-10-17T14:09:25;100717.47;;;54.56;15.44
63347;BME280;49472;49.880;8.650;2022-10-17T14:14:23;100719.88;;;54.43;15.44
63347;BME280;49472;49.880;8.650;2022-10-17T14:16:50;100719.13;;;53.89;16.53
63347;BME280;49472;49.880;8.650;2022-10-17T14:19:28;100718.47;;;56.44;14.58
63347;BME280;49472;49.880;8.650;2022-10-17T14:24:48;100734.53;;;54.93;16.00
63347;BME280;49472;49.880;8.650;2022-10-17T14:29:57;100725.13;;;55.60;14.76
63347;BME280;49472;49.880;8.650;2022-10-17T14:32:32;100738.41;;;55.10;14.85
63347;BME280;49472;49.880;8.650;2022-10-17T14:34:59;100740.25;;;54.21;15.44
63347;BME280;49472;49.880;8.650;2022-10-17T14:37:30;100735.47;;;53.35;15.84
63347;BME280;49472;49.880;8.650;2022-10-17T14:40:00;100732.56;;;52.78;16.21
63347;BME280;49472;49.880;8.650;2022-10-17T14:42:27;100742.97;;;50.14;17.85
63347;BME280;49472;49.880;8.650;2022-10-17T14:44:53;100733.47;;;49.82;18.58
63347;BME280;49472;49.880;8.650;2022-10-17T14:47:26;100738.94;;;50.54;17.97
63347;BME280;49472;49.880;8.650;2022-10-17T14:50:15;100737.84;;;47.62;19.93
63347;BME280;49472;49.880;8.650;2022-10-17T14:52:58;100746.06;;;47.37;20.02
63347;BME280;49472;49.880;8.650;2022-10-17T14:55:25;100744.81;;;46.45;21.08
63347;BME280;49472;49.880;8.650;2022-10-17T14:57:51;100745.44;;;48.00;19.83
63347;BME280;49472;49.880;8.650;2022-10-17T15:00:18;100752.00;;;46.29;20.94
63347;BME280;49472;49.880;8.650;2022-10-17T15:02:46;100756.28;;;47.56;20.29
63347;BME280;49472;49.880;8.650;2022-10-17T15:05:12;100750.88;;;48.64;19.47
63347;BME280;49472;49.880;8.650;2022-10-17T15:07:38;100764.97;;;46.97;20.90
63347;BME280;49472;49.880;8.650;2022-10-17T15:10:04;100776.53;;;46.11;21.17
63347;BME280;49472;49.880;8.650;2022-10-17T15:12:29;100769.56;;;47.33;20.72